Time;durP1;ratioP1;P1;durP2;ratioP2;P2;SDS_P1;SDS_P2;PMS_P1;PMS_P2;Temp;Humidity;BMP_temperature;BMP_pressure;BME280_temperature;BME280_humidity;BME280_pressure;Samples;Min_cycle;Max_cycle;Signal;HPM_P1;HPM_P2
2023/09/18 00:00:39;;;;;;;18.50;15.20;;;16.50;99.90;;;;;;4988608;28;20038;-79
2023/09/18 00:03:04;;;;;;;17.63;15.40;;;16.50;99.90;;;;;;4989750;28;20055;-79
2023/09/18 00:05:31;;;;;;;19.75;16.13;;;16.50;99.90;;;;;;4987712;28;20038;-79
2023/09/18 00:07:56;;;;;;;17.60;15.45;;;16.50;99.90;;;;;;4989116;28;20038;-79
2023/09/18 00:10:22;;;;;;;20.35;17.42;;;16.50;99.90;;;;;;4989428;28;20034;-79
2023/09/18 00:12:47;;;;;;;17.20;14.60;;;16.50;99.90;;;;;;4985186;28;20038;-79
2023/09/18 00:15:13;;;;;;;16.65;13.30;;;16.50;99.90;;;;;;4987939;28;20038;-79
2023/09/18 00:17:38;;;;;;;14.70;12.98;;;16.50;99.90;;;;;;4988929;28;20458;-79
2023/09/18 00:20:06;;;;;;;19.02;14.02;;;16.50;99.90;;;;;;4988272;28;20448;-79
2023/09/18 00:22:32;;;;;;;21.35;13.82;;;16.50;99.90;;;;;;4987508;28;20126;-78
2023/09/18 00:24:57;;;;;;;16.27;13.68;;;16.40;99.90;;;;;;4988834;28;20125;-79
2023/09/18 00:27:23;;;;;;;18.55;15.15;;;16.40;99.90;;;;;;4984776;28;20075;-81
2023/09/18 00:29:49;;;;;;;18.20;15.38;;;16.40;99.90;;;;;;4987384;28;20038;-79
2023/09/18 00:32:14;;;;;;;20.35;14.95;;;16.40;99.90;;;;;;4986027;28;20043;-79
2023/09/18 00:34:40;;;;;;;16.35;13.93;;;16.40;99.90;;;;;;4988401;28;20568;-79
2023/09/18 00:37:05;;;;;;;18.88;12.98;;;16.40;99.90;;;;;;4974650;28;20042;-78
2023/09/18 00:39:31;;;;;;;16.98;13.77;;;16.30;99.90;;;;;;4987671;28;20038;-80
2023/09/18 00:41:56;;;;;;;15.90;13.98;;;16.30;99.90;;;;;;4985577;28;20085;-79
2023/09/18 00:44:26;;;;;;;16.15;13.25;;;16.30;99.90;;;;;;4988319;28;20506;-78
2023/09/18 00:46:52;;;;;;;63.95;14.63;;;16.30;99.90;;;;;;4989029;28;20038;-78
2023/09/18 00:49:20;;;;;;;16.67;10.80;;;16.30;99.90;;;;;;4992494;28;20057;-80
2023/09/18 00:51:47;;;;;;;14.73;11.43;;;16.30;99.90;;;;;;4993513;28;20041;-78
2023/09/18 00:54:14;;;;;;;13.77;11.75;;;16.20;99.90;;;;;;4976579;28;20057;-79
2023/09/18 00:56:40;;;;;;;14.90;11.70;;;16.20;99.90;;;;;;4975738;28;20042;-79
2023/09/18 00:59:06;;;;;;;14.43;12.93;;;16.30;99.90;;;;;;4992398;28;20034;-78
2023/09/18 01:01:32;;;;;;;14.98;12.70;;;16.30;99.90;;;;;;4991438;28;20448;-78
2023/09/18 01:03:58;;;;;;;15.20;12.52;;;16.30;99.90;;;;;;4975869;28;20697;-78
2023/09/18 01:06:30;;;;;;;14.70;13.10;;;16.30;99.90;;;;;;4990710;28;20070;-78
2023/09/18 01:08:56;;;;;;;16.90;14.10;;;16.30;99.90;;;;;;4975810;28;20038;-77
2023/09/18 01:11:26;;;;;;;20.00;14.77;;;16.30;99.90;;;;;;4989856;28;20042;-77
2023/09/18 01:14:16;;;;;;;18.60;16.20;;;16.30;99.90;;;;;;4991711;28;20065;-78
2023/09/18 01:16:55;;;;;;;22.83;17.80;;;16.30;99.90;;;;;;4987445;28;20584;-78
2023/09/18 01:19:46;;;;;;;23.10;18.77;;;16.30;99.90;;;;;;4991931;28;20038;-78
2023/09/18 01:22:17;;;;;;;24.58;20.85;;;16.40;99.90;;;;;;4991037;28;20640;-79
2023/09/18 01:24:44;;;;;;;28.33;22.83;;;16.40;99.90;;;;;;4991265;28;20130;-80
2023/09/18 01:27:16;;;;;;;28.48;22.95;;;16.40;99.90;;;;;;4991804;28;20529;-79
2023/09/18 01:29:43;;;;;;;30.75;25.38;;;16.50;99.90;;;;;;4993298;28;20097;-79
2023/09/18 01:32:08;;;;;;;29.33;25.65;;;16.50;99.90;;;;;;4991612;28;20621;-79
2023/09/18 01:34:41;;;;;;;32.67;26.02;;;16.60;99.90;;;;;;4990067;28;20065;-80
2023/09/18 01:37:08;;;;;;;30.50;25.77;;;16.60;99.90;;;;;;4991264;28;20453;-79
2023/09/18 01:39:35;;;;;;;31.45;25.35;;;16.60;99.90;;;;;;4974953;28;20336;-78
2023/09/18 01:42:05;;;;;;;34.33;26.35;;;16.60;99.90;;;;;;4990146;28;20038;-79
2023/09/18 01:44:32;;;;;;;33.38;26.90;;;16.60;99.90;;;;;;4988537;28;20043;-80
2023/09/18 01:47:05;;;;;;;33.20;27.08;;;16.70;99.90;;;;;;4988011;28;20046;-79
2023/09/18 01:49:36;;;;;;;33.33;26.60;;;16.60;99.90;;;;;;4990077;28;20057;-78
2023/09/18 01:52:03;;;;;;;33.72;28.10;;;16.60;99.90;;;;;;4977684;28;20038;-79
2023/09/18 01:54:30;;;;;;;37.00;27.92;;;16.60;99.90;;;;;;4975514;28;20053;-78
2023/09/18 01:56:55;;;;;;;34.53;27.40;;;16.60;99.90;;;;;;4975635;28;20038;-78
2023/09/18 01:59:22;;;;;;;37.35;27.42;;;16.60;99.90;;;;;;4990556;28;20038;-79
2023/09/18 02:01:48;;;;;;;32.72;25.88;;;16.60;99.90;;;;;;4990847;28;20042;-79
2023/09/18 02:04:14;;;;;;;34.47;27.80;;;16.60;99.90;;;;;;4990704;28;20053;-78
2023/09/18 02:06:40;;;;;;;30.67;25.85;;;16.60;99.90;;;;;;4990469;28;20042;-79
2023/09/18 02:09:09;;;;;;;33.08;26.75;;;16.60;99.90;;;;;;4990689;28;20038;-78
2023/09/18 02:11:43;;;;;;;32.85;26.05;;;16.60;99.90;;;;;;4989241;28;20383;-77
2023/09/18 02:14:09;;;;;;;33.50;26.35;;;16.60;99.90;;;;;;4990242;28;20502;-77
2023/09/18 02:16:37;;;;;;;31.75;26.20;;;16.60;99.90;;;;;;4989583;28;20045;-79
2023/09/18 02:19:03;;;;;;;31.23;26.27;;;16.60;99.90;;;;;;4990576;28;20402;-79
2023/09/18 02:21:29;;;;;;;29.65;25.02;;;16.60;99.90;;;;;;4973777;28;20035;-78
2023/09/18 02:23:55;;;;;;;29.95;24.98;;;16.60;99.90;;;;;;4990352;28;20092;-77
2023/09/18 02:26:22;;;;;;;30.20;24.55;;;16.60;99.90;;;;;;4988358;28;20410;-78
2023/09/18 02:28:47;;;;;;;30.75;25.05;;;16.60;99.90;;;;;;4991147;28;20672;-78
2023/09/18 02:31:14;;;;;;;29.65;25.42;;;16.60;99.90;;;;;;4990083;28;20113;-77
2023/09/18 02:33:40;;;;;;;29.48;23.98;;;16.60;99.90;;;;;;4990692;28;20042;-77
2023/09/18 02:36:06;;;;;;;30.42;25.25;;;16.60;99.90;;;;;;4970846;28;20031;-79
2023/09/18 02:38:32;;;;;;;28.15;24.85;;;16.60;99.90;;;;;;4990959;28;20049;-78
2023/09/18 02:40:58;;;;;;;26.98;23.15;;;16.60;99.90;;;;;;4974895;28;20153;-78
2023/09/18 02:43:24;;;;;;;29.80;25.00;;;16.60;99.90;;;;;;4989958;28;20121;-78
2023/09/18 02:45:50;;;;;;;26.92;23.92;;;16.60;99.90;;;;;;4990547;28;20078;-78
2023/09/18 02:48:16;;;;;;;29.20;24.75;;;16.60;99.90;;;;;;4989155;28;20030;-78
2023/09/18 02:50:42;;;;;;;29.80;23.65;;;16.60;99.90;;;;;;4988633;28;20042;-78
2023/09/18 02:53:15;;;;;;;27.15;24.08;;;16.60;99.90;;;;;;4989737;28;20110;-78
2023/09/18 02:55:41;;;;;;;26.67;22.23;;;16.70;99.90;;;;;;4990139;28;20045;-79
2023/09/18 02:58:08;;;;;;;26.50;23.05;;;16.70;99.90;;;;;;4990129;28;20117;-77
2023/09/18 03:00:34;;;;;;;27.77;23.38;;;16.70;99.90;;;;;;4994544;28;20046;-77
2023/09/18 03:03:00;;;;;;;25.73;22.98;;;16.70;99.90;;;;;;4987499;28;20095;-77
2023/09/18 03:05:26;;;;;;;27.92;24.33;;;16.70;99.90;;;;;;4990541;28;20037;-78
2023/09/18 03:07:52;;;;;;;25.90;22.90;;;16.70;99.90;;;;;;4988115;28;20042;-77
2023/09/18 03:10:18;;;;;;;26.00;23.08;;;16.70;99.90;;;;;;4989230;28;20047;-78
2023/09/18 03:12:47;;;;;;;26.00;22.65;;;16.70;99.90;;;;;;4989797;28;20193;-77
2023/09/18 03:15:12;;;;;;;28.38;22.95;;;16.70;99.90;;;;;;4991198;28;20042;-78
2023/09/18 03:17:40;;;;;;;26.70;21.70;;;16.70;99.90;;;;;;4986972;28;20033;-78
2023/09/18 03:20:07;;;;;;;27.77;22.33;;;16.70;99.90;;;;;;4990127;28;20047;-78
2023/09/18 03:22:32;;;;;;;24.70;21.55;;;16.70;99.90;;;;;;4989384;28;20057;-77
2023/09/18 03:24:58;;;;;;;26.33;22.38;;;16.70;99.90;;;;;;4989421;28;20407;-77
2023/09/18 03:27:28;;;;;;;26.75;23.08;;;16.70;99.90;;;;;;4973491;28;20039;-79
2023/09/18 03:29:57;;;;;;;27.42;22.42;;;16.70;99.90;;;;;;4987526;28;20434;-78
2023/09/18 03:32:22;;;;;;;23.20;20.52;;;16.70;99.90;;;;;;4987377;28;20034;-78
2023/09/18 03:34:51;;;;;;;25.10;22.17;;;16.70;99.90;;;;;;4989642;28;20044;-77
2023/09/18 03:37:16;;;;;;;24.30;20.10;;;16.70;99.90;;;;;;4988579;28;20126;-78
2023/09/18 03:39:42;;;;;;;23.77;21.27;;;16.60;99.90;;;;;;4973627;28;20129;-77
2023/09/18 03:42:07;;;;;;;24.00;19.50;;;16.60;99.90;;;;;;4989172;28;20054;-77
2023/09/18 03:44:33;;;;;;;24.75;21.02;;;16.60;99.90;;;;;;4990021;28;20046;-78
2023/09/18 03:46:58;;;;;;;24.75;21.13;;;16.60;99.90;;;;;;4988021;28;20042;-77
2023/09/18 03:49:24;;;;;;;26.00;20.10;;;16.60;99.90;;;;;;4988950;28;20055;-78
2023/09/18 03:51:49;;;;;;;22.15;19.75;;;16.60;99.90;;;;;;4989625;28;20034;-77
2023/09/18 03:54:15;;;;;;;25.13;21.42;;;16.60;99.90;;;;;;4988686;28;20505;-79
2023/09/18 03:56:40;;;;;;;27.48;21.38;;;16.70;99.90;;;;;;4989680;28;20035;-77
2023/09/18 03:59:06;;;;;;;24.88;22.25;;;16.70;99.90;;;;;;4987372;28;20155;-76
2023/09/18 04:01:31;;;;;;;26.90;21.20;;;16.80;99.90;;;;;;4989478;28;20042;-78
2023/09/18 04:03:58;;;;;;;25.45;21.27;;;16.80;99.90;;;;;;4988029;28;20070;-77
2023/09/18 04:06:24;;;;;;;24.13;21.38;;;16.80;99.90;;;;;;4988734;28;20048;-78
2023/09/18 04:08:51;;;;;;;24.38;21.77;;;16.80;99.90;;;;;;4987152;28;20129;-78
2023/09/18 04:11:17;;;;;;;25.10;21.73;;;16.80;99.90;;;;;;4989290;28;20137;-78
2023/09/18 04:13:42;;;;;;;25.23;21.10;;;16.80;99.90;;;;;;4971552;28;20438;-78
2023/09/18 04:16:08;;;;;;;29.40;22.17;;;16.80;99.90;;;;;;4987771;28;20030;-77
2023/09/18 04:18:33;;;;;;;22.67;20.27;;;16.80;99.90;;;;;;4988247;28;20043;-78
2023/09/18 04:20:59;;;;;;;23.27;19.90;;;16.80;99.90;;;;;;4988371;28;20048;-76
2023/09/18 04:23:26;;;;;;;24.17;20.38;;;16.80;99.90;;;;;;5008775;28;20039;-76
2023/09/18 04:25:53;;;;;;;26.77;21.35;;;16.80;99.90;;;;;;4991432;28;20604;-77
2023/09/18 04:28:22;;;;;;;22.15;19.85;;;16.80;99.90;;;;;;4992307;28;20430;-77
2023/09/18 04:30:48;;;;;;;25.02;20.83;;;16.80;99.90;;;;;;4991554;28;20409;-78
2023/09/18 04:33:14;;;;;;;21.80;19.55;;;16.80;99.90;;;;;;4989676;28;20045;-78
2023/09/18 04:35:40;;;;;;;22.63;19.65;;;16.80;99.90;;;;;;4992384;28;20104;-78
2023/09/18 04:38:10;;;;;;;22.33;19.98;;;16.90;99.90;;;;;;4991817;28;20042;-77
2023/09/18 04:40:36;;;;;;;21.65;19.38;;;16.80;99.90;;;;;;4990884;28;20125;-77
2023/09/18 04:43:04;;;;;;;22.48;19.05;;;16.90;99.90;;;;;;4977262;28;20509;-77
2023/09/18 04:45:30;;;;;;;22.33;18.90;;;16.90;99.90;;;;;;4990795;28;20050;-77
2023/09/18 04:47:56;;;;;;;23.42;19.42;;;16.90;99.90;;;;;;4992454;28;20522;-76
2023/09/18 04:50:22;;;;;;;21.85;19.33;;;16.90;99.90;;;;;;4993518;28;20104;-76
2023/09/18 04:52:48;;;;;;;22.05;19.02;;;16.90;99.90;;;;;;4993664;28;20080;-78
2023/09/18 04:55:14;;;;;;;23.52;19.38;;;17.00;99.90;;;;;;4984318;28;20521;-78
2023/09/18 04:57:40;;;;;;;20.98;18.42;;;17.00;99.90;;;;;;4985510;28;20061;-76
2023/09/18 05:00:09;;;;;;;22.00;18.90;;;17.00;99.90;;;;;;4991235;28;20038;-77
2023/09/18 05:02:36;;;;;;;21.73;18.83;;;17.00;99.90;;;;;;4993598;28;20061;-77
2023/09/18 05:05:03;;;;;;;24.60;18.80;;;17.10;99.90;;;;;;4992495;28;20043;-77
2023/09/18 05:07:28;;;;;;;23.70;19.63;;;17.10;99.90;;;;;;4985376;28;20409;-77
2023/09/18 05:09:54;;;;;;;22.65;18.30;;;17.00;99.90;;;;;;4977181;28;20041;-76
2023/09/18 05:12:19;;;;;;;20.52;18.38;;;17.00;99.90;;;;;;4993355;28;20042;-77
2023/09/18 05:14:45;;;;;;;22.05;18.90;;;17.10;99.90;;;;;;4993279;28;20045;-77
2023/09/18 05:17:14;;;;;;;21.58;19.25;;;17.00;99.90;;;;;;4993069;28;20038;-77
2023/09/18 05:19:40;;;;;;;22.15;18.63;;;17.00;99.90;;;;;;4993293;28;20101;-77
2023/09/18 05:22:06;;;;;;;22.45;19.02;;;17.00;99.90;;;;;;4993112;28;20097;-77
2023/09/18 05:24:32;;;;;;;23.13;19.05;;;17.00;99.90;;;;;;4993173;28;20081;-77
2023/09/18 05:26:57;;;;;;;19.73;16.73;;;17.10;99.90;;;;;;4990784;28;20062;-77
2023/09/18 05:29:24;;;;;;;22.50;17.75;;;17.10;99.90;;;;;;4985891;28;20046;-77
2023/09/18 05:31:49;;;;;;;19.13;17.05;;;17.10;99.90;;;;;;4992930;28;20049;-77
2023/09/18 05:34:15;;;;;;;24.77;18.75;;;17.10;99.90;;;;;;4977132;28;20038;-79
2023/09/18 05:36:41;;;;;;;20.45;18.00;;;17.10;99.90;;;;;;4997542;28;20449;-78
2023/09/18 05:39:12;;;;;;;23.27;18.33;;;17.10;99.90;;;;;;4992788;28;20038;-78
2023/09/18 05:41:39;;;;;;;22.42;17.27;;;17.10;99.90;;;;;;4993241;28;20050;-78
2023/09/18 05:44:07;;;;;;;21.27;18.33;;;17.20;99.90;;;;;;4994127;28;20050;-78
2023/09/18 05:46:34;;;;;;;20.42;17.88;;;17.10;99.90;;;;;;4992960;28;20053;-78
2023/09/18 05:49:00;;;;;;;19.95;16.80;;;17.20;99.90;;;;;;4992846;28;20429;-78
2023/09/18 05:51:26;;;;;;;20.08;16.38;;;17.20;99.90;;;;;;4992186;28;20046;-78
2023/09/18 05:53:51;;;;;;;19.13;16.83;;;17.30;99.90;;;;;;4988787;28;20449;-76
2023/09/18 05:56:17;;;;;;;20.25;16.30;;;17.30;99.90;;;;;;4985295;28;20038;-78
2023/09/18 05:58:43;;;;;;;18.20;15.60;;;17.30;99.90;;;;;;4992626;28;20038;-77
2023/09/18 06:01:09;;;;;;;17.10;15.30;;;17.30;99.90;;;;;;4992901;28;20729;-77
2023/09/18 06:03:35;;;;;;;19.63;14.65;;;17.40;99.90;;;;;;4992737;28;20042;-78
2023/09/18 06:06:10;;;;;;;17.63;13.93;;;17.40;99.90;;;;;;4992857;28;20433;-74
2023/09/18 06:08:35;;;;;;;17.15;13.65;;;17.40;99.90;;;;;;4985402;28;20137;-74
2023/09/18 06:11:01;;;;;;;18.45;13.68;;;17.50;99.90;;;;;;4992533;28;20410;-75
2023/09/18 06:13:27;;;;;;;16.27;12.68;;;17.50;99.90;;;;;;4992442;28;20030;-79
2023/09/18 06:15:56;;;;;;;15.93;12.35;;;17.50;99.90;;;;;;4992202;28;20468;-79
2023/09/18 06:18:22;;;;;;;14.32;12.13;;;17.60;99.90;;;;;;4992889;28;20554;-80
2023/09/18 06:20:48;;;;;;;15.88;12.50;;;17.70;99.90;;;;;;4992981;28;20118;-81
2023/09/18 06:23:14;;;;;;;15.70;11.73;;;17.70;99.90;;;;;;4992808;28;20035;-79
2023/09/18 06:25:40;;;;;;;17.38;12.10;;;17.70;99.90;;;;;;4993019;28;20517;-79
2023/09/18 06:28:06;;;;;;;14.23;10.90;;;17.80;99.90;;;;;;4992575;28;20129;-79
2023/09/18 06:30:33;;;;;;;13.13;11.60;;;17.80;99.90;;;;;;4992621;28;20046;-77
2023/09/18 06:32:59;;;;;;;13.15;11.73;;;17.90;99.90;;;;;;4991916;28;20038;-78
2023/09/18 06:35:24;;;;;;;13.65;10.85;;;17.90;99.90;;;;;;4986867;28;20041;-78
2023/09/18 06:37:50;;;;;;;15.63;11.30;;;17.90;99.90;;;;;;4988773;28;20414;-78
2023/09/18 06:40:16;;;;;;;14.07;10.60;;;18.00;99.90;;;;;;4973743;28;20050;-78
2023/09/18 06:42:41;;;;;;;14.38;10.40;;;18.00;99.90;;;;;;4987751;28;20048;-78
2023/09/18 06:45:07;;;;;;;14.90;10.65;;;18.00;99.90;;;;;;4982386;28;20064;-78
2023/09/18 06:47:34;;;;;;;14.88;10.75;;;18.00;99.90;;;;;;4975379;28;20074;-78
2023/09/18 06:50:00;;;;;;;13.85;10.50;;;18.00;99.90;;;;;;4988849;28;20071;-78
2023/09/18 06:52:26;;;;;;;14.65;10.50;;;18.00;99.90;;;;;;4984877;28;20034;-78
2023/09/18 06:54:52;;;;;;;18.40;10.63;;;18.00;99.90;;;;;;4987157;28;20647;-78
2023/09/18 06:57:18;;;;;;;12.70;10.35;;;18.10;99.90;;;;;;4982016;28;20043;-78
2023/09/18 06:59:44;;;;;;;28.42;11.55;;;18.10;99.90;;;;;;4985437;28;20053;-75
2023/09/18 07:02:10;;;;;;;23.88;12.20;;;18.10;99.90;;;;;;4991611;28;20441;-74
2023/09/18 07:04:36;;;;;;;28.45;12.98;;;18.30;99.90;;;;;;4989270;28;20061;-73
2023/09/18 07:07:02;;;;;;;22.50;14.18;;;18.10;99.90;;;;;;4988994;28;20093;-73
2023/09/18 07:09:28;;;;;;;19.98;13.52;;;18.10;99.90;;;;;;4989267;28;20554;-72
2023/09/18 07:11:54;;;;;;;22.02;13.57;;;18.10;99.90;;;;;;4990523;28;20126;-73
2023/09/18 07:14:19;;;;;;;24.33;14.23;;;18.10;99.90;;;;;;4989458;28;20069;-72
2023/09/18 07:16:45;;;;;;;20.23;13.98;;;18.10;99.90;;;;;;4992321;28;20058;-72
2023/09/18 07:19:16;;;;;;;23.38;14.55;;;18.10;99.90;;;;;;4992333;28;20121;-72
2023/09/18 07:21:42;;;;;;;21.92;15.15;;;18.10;99.90;;;;;;4991019;28;20533;-72
2023/09/18 07:24:07;;;;;;;21.42;15.60;;;18.00;99.90;;;;;;4990921;28;20046;-72
2023/09/18 07:26:33;;;;;;;24.40;16.63;;;18.10;99.90;;;;;;4990598;28;20042;-73
2023/09/18 07:28:59;;;;;;;20.00;15.38;;;18.10;99.90;;;;;;4990562;28;20047;-73
2023/09/18 07:31:24;;;;;;;26.17;16.00;;;18.10;99.90;;;;;;4991051;28;20045;-73
2023/09/18 07:33:51;;;;;;;28.98;15.27;;;18.10;99.90;;;;;;4990823;28;20269;-73
2023/09/18 07:36:17;;;;;;;27.45;17.10;;;18.10;99.90;;;;;;4990457;28;20049;-72
2023/09/18 07:38:43;;;;;;;26.88;16.42;;;18.10;99.90;;;;;;4990699;28;20046;-72
2023/09/18 07:41:09;;;;;;;23.35;16.35;;;18.10;99.90;;;;;;4990599;28;20045;-73
2023/09/18 07:43:34;;;;;;;26.10;16.65;;;18.10;99.90;;;;;;4990850;28;20046;-73
2023/09/18 07:46:01;;;;;;;23.20;16.15;;;18.00;99.90;;;;;;4990628;28;20038;-72
2023/09/18 07:48:27;;;;;;;23.80;16.02;;;18.00;99.90;;;;;;4990356;28;20109;-72
2023/09/18 07:50:54;;;;;;;22.80;16.10;;;18.00;99.90;;;;;;4990409;28;20038;-72
2023/09/18 07:53:20;;;;;;;20.20;16.52;;;18.00;99.90;;;;;;4990336;28;20046;-73
2023/09/18 07:55:45;;;;;;;23.85;17.77;;;18.00;99.90;;;;;;4987898;28;20573;-73
2023/09/18 07:58:11;;;;;;;21.85;16.08;;;18.10;99.90;;;;;;4981198;28;20114;-72
2023/09/18 08:00:37;;;;;;;20.10;15.85;;;18.00;99.90;;;;;;4987365;28;20054;-73
2023/09/18 08:03:03;;;;;;;22.33;17.38;;;18.00;99.90;;;;;;4986901;28;20062;-73
2023/09/18 08:05:31;;;;;;;24.33;16.83;;;18.10;99.90;;;;;;4985553;28;20574;-72
2023/09/18 08:07:58;;;;;;;19.10;15.95;;;18.30;99.90;;;;;;4984495;28;20053;-72
2023/09/18 08:10:27;;;;;;;21.92;16.00;;;18.10;99.90;;;;;;4983124;28;20058;-73
2023/09/18 08:12:53;;;;;;;25.30;16.52;;;18.10;99.90;;;;;;4982561;28;20046;-73
2023/09/18 08:15:20;;;;;;;21.50;15.63;;;18.10;99.90;;;;;;4983100;28;20038;-73
2023/09/18 08:17:46;;;;;;;21.85;15.13;;;18.10;99.90;;;;;;4985889;28;20045;-72
2023/09/18 08:20:15;;;;;;;17.30;13.38;;;18.10;99.90;;;;;;4980145;28;20043;-72
2023/09/18 08:22:41;;;;;;;16.48;12.75;;;18.10;99.90;;;;;;4981409;28;20051;-72
2023/09/18 08:25:10;;;;;;;16.50;12.23;;;18.10;99.90;;;;;;4986190;28;20039;-73
2023/09/18 08:27:41;;;;;;;21.00;12.57;;;18.10;99.90;;;;;;4983392;28;20108;-73
2023/09/18 08:30:09;;;;;;;17.60;12.10;;;18.10;99.90;;;;;;4985349;28;20119;-73
2023/09/18 08:32:35;;;;;;;14.15;10.85;;;18.10;99.90;;;;;;4986459;28;20054;-73
2023/09/18 08:35:01;;;;;;;14.90;11.73;;;18.20;99.90;;;;;;4983370;28;20121;-72
2023/09/18 08:37:27;;;;;;;15.65;11.38;;;18.10;99.90;;;;;;4987935;28;20540;-72
2023/09/18 08:39:54;;;;;;;14.95;11.85;;;18.20;99.90;;;;;;4986271;28;20046;-73
2023/09/18 08:42:21;;;;;;;17.33;12.07;;;18.20;99.90;;;;;;4985799;28;20046;-73
2023/09/18 08:44:51;;;;;;;17.45;13.15;;;18.20;99.90;;;;;;4984886;28;20045;-72
2023/09/18 08:47:18;;;;;;;19.77;13.48;;;18.30;99.90;;;;;;4984186;28;20038;-72
2023/09/18 08:49:48;;;;;;;22.27;13.15;;;18.30;99.90;;;;;;4989072;28;20532;-72
2023/09/18 08:52:15;;;;;;;19.80;14.52;;;18.50;99.90;;;;;;4988020;28;20041;-72
2023/09/18 08:54:43;;;;;;;20.38;14.70;;;18.50;99.90;;;;;;4982362;28;20053;-72
2023/09/18 08:57:09;;;;;;;21.75;15.10;;;18.60;99.90;;;;;;4970923;28;20034;-72
2023/09/18 08:59:36;;;;;;;22.58;14.88;;;18.60;99.90;;;;;;4989657;28;20403;-73
2023/09/18 09:02:02;;;;;;;19.95;13.75;;;18.60;99.90;;;;;;4989564;28;20053;-73
2023/09/18 09:04:28;;;;;;;18.73;14.80;;;18.60;99.90;;;;;;4988897;28;20034;-73
2023/09/18 09:06:57;;;;;;;19.52;14.73;;;18.60;99.90;;;;;;4986238;28;20035;-73
2023/09/18 09:09:23;;;;;;;20.60;15.35;;;18.60;99.90;;;;;;4991673;28;20088;-73
2023/09/18 09:11:50;;;;;;;18.90;14.07;;;18.60;99.90;;;;;;4993087;28;20050;-73
2023/09/18 09:14:21;;;;;;;18.70;13.45;;;18.60;99.90;;;;;;4992552;28;20042;-73
2023/09/18 09:16:50;;;;;;;21.25;13.95;;;18.60;99.90;;;;;;4992218;28;20069;-73
2023/09/18 09:19:17;;;;;;;18.50;13.27;;;18.60;99.90;;;;;;4984121;28;20039;-72
2023/09/18 09:21:44;;;;;;;17.17;13.10;;;18.60;99.90;;;;;;4996746;28;20089;-73
2023/09/18 09:24:13;;;;;;;18.55;14.15;;;18.70;99.90;;;;;;4990229;28;20054;-72
2023/09/18 09:26:40;;;;;;;22.40;14.07;;;18.70;99.90;;;;;;4992611;28;20181;-66
2023/09/18 09:29:18;;;;;;;17.08;13.27;;;18.80;99.90;;;;;;4992183;28;20093;-65
2023/09/18 09:31:45;;;;;;;19.60;13.93;;;18.90;99.90;;;;;;4993071;28;20030;-66
2023/09/18 09:34:10;;;;;;;17.83;13.73;;;18.90;99.90;;;;;;4992461;28;20042;-66
2023/09/18 09:36:36;;;;;;;20.55;14.23;;;19.00;99.90;;;;;;4988920;28;20046;-71
2023/09/18 09:39:04;;;;;;;17.88;13.80;;;19.00;99.90;;;;;;4988653;28;20084;-74
2023/09/18 09:41:31;;;;;;;19.92;14.45;;;19.00;99.90;;;;;;4991176;28;20042;-72
2023/09/18 09:43:57;;;;;;;20.20;14.93;;;19.10;99.90;;;;;;4985190;28;20054;-72
2023/09/18 09:46:25;;;;;;;18.25;15.00;;;19.20;99.90;;;;;;4989514;28;20038;-72
2023/09/18 09:49:02;;;;;;;18.13;15.10;;;19.20;99.90;;;;;;4986972;28;20181;-70
2023/09/18 09:51:29;;;;;;;21.27;15.75;;;19.20;99.90;;;;;;4990134;28;20038;-77
2023/09/18 09:53:55;;;;;;;18.58;15.43;;;19.20;99.90;;;;;;4991432;28;20046;-78
2023/09/18 09:56:21;;;;;;;22.23;15.95;;;19.30;99.90;;;;;;4992198;28;20045;-78
2023/09/18 09:59:07;;;;;;;20.70;15.52;;;19.30;99.90;;;;;;4986959;28;20121;-77
2023/09/18 10:01:34;;;;;;;25.00;16.42;;;19.30;99.90;;;;;;4992131;28;20034;-78
2023/09/18 10:04:16;;;;;;;23.95;16.60;;;19.40;99.90;;;;;;4992088;28;20034;-78
2023/09/18 10:06:45;;;;;;;20.15;16.63;;;19.50;99.90;;;;;;4989013;28;20042;-77
2023/09/18 10:09:13;;;;;;;19.35;16.70;;;19.60;99.90;;;;;;4992207;28;20555;-78
2023/09/18 10:11:44;;;;;;;24.42;17.95;;;19.70;99.90;;;;;;4990804;28;20052;-76
2023/09/18 10:14:17;;;;;;;22.10;17.83;;;19.80;99.90;;;;;;4992101;28;20413;-78
2023/09/18 10:16:50;;;;;;;22.83;17.55;;;20.00;99.90;;;;;;4991656;28;20046;-77
2023/09/18 10:19:40;;;;;;;19.90;17.73;;;20.10;99.90;;;;;;4974841;28;20073;-77
2023/09/18 10:22:26;;;;;;;22.17;18.08;;;20.20;99.90;;;;;;4975994;28;20293;-76
2023/09/18 10:25:00;;;;;;;19.00;17.02;;;20.40;99.90;;;;;;4992204;28;20042;-78
2023/09/18 10:27:28;;;;;;;19.23;16.80;;;20.50;99.90;;;;;;4991781;28;20038;-77
2023/09/18 10:29:54;;;;;;;18.02;15.70;;;20.60;99.90;;;;;;4992673;28;20041;-79
2023/09/18 10:32:21;;;;;;;18.27;15.40;;;20.60;99.90;;;;;;4993896;28;20430;-78
2023/09/18 10:34:48;;;;;;;19.23;14.55;;;20.60;99.90;;;;;;4992680;28;20042;-79
2023/09/18 10:37:15;;;;;;;16.75;14.52;;;20.80;99.90;;;;;;4994272;28;20038;-80
2023/09/18 10:39:42;;;;;;;17.23;13.45;;;20.90;99.90;;;;;;4977771;28;20046;-77
2023/09/18 10:42:08;;;;;;;14.30;12.80;;;20.90;99.90;;;;;;4993706;28;20046;-78
2023/09/18 10:44:35;;;;;;;14.57;13.07;;;20.90;99.90;;;;;;4989486;28;20128;-79
2023/09/18 10:47:07;;;;;;;13.50;12.02;;;21.00;99.90;;;;;;4993124;28;20038;-77
2023/09/18 10:49:35;;;;;;;14.30;11.15;;;21.10;99.90;;;;;;5001657;28;20129;-80
2023/09/18 10:52:00;;;;;;;14.43;12.25;;;21.20;99.90;;;;;;4993322;28;20065;-78
2023/09/18 10:54:31;;;;;;;11.63;10.20;;;21.30;99.90;;;;;;4994387;28;20046;-79
2023/09/18 10:56:57;;;;;;;13.63;10.43;;;21.30;99.90;;;;;;4992990;28;20054;-78
2023/09/18 10:59:23;;;;;;;11.25;9.43;;;21.40;99.90;;;;;;4993793;28;20065;-79
2023/09/18 11:01:49;;;;;;;10.77;9.18;;;21.40;99.90;;;;;;4994770;28;20056;-80
2023/09/18 11:04:18;;;;;;;9.75;8.38;;;21.40;99.90;;;;;;4995609;28;20049;-80
2023/09/18 11:06:53;;;;;;;9.52;8.57;;;21.50;99.90;;;;;;4992224;28;20049;-80
2023/09/18 11:09:27;;;;;;;10.38;8.60;;;21.60;99.90;;;;;;4991338;28;20053;-80
2023/09/18 11:11:59;;;;;;;;;;;21.50;99.90;;;;;;4993354;28;20086;-81
2023/09/18 11:14:45;;;;;;;11.15;6.97;;;21.40;99.90;;;;;;4993131;28;19924;-80
2023/09/18 11:17:36;;;;;;;10.57;7.75;;;21.30;99.90;;;;;;4991936;28;20042;-79
2023/09/18 11:20:09;;;;;;;8.52;6.85;;;21.20;99.90;;;;;;4992561;28;20042;-79
2023/09/18 11:22:40;;;;;;;8.95;6.43;;;21.10;99.90;;;;;;4992695;28;20065;-80
2023/09/18 11:25:47;;;;;;;7.93;6.38;;;21.10;99.90;;;;;;4976787;28;20076;-80
2023/09/18 11:28:18;;;;;;;11.30;6.68;;;21.20;99.90;;;;;;4993611;28;20045;-80
2023/09/18 11:30:56;;;;;;;6.10;5.32;;;21.40;99.90;;;;;;4992826;28;20058;-81
2023/09/18 11:33:32;;;;;;;7.65;5.57;;;21.60;99.90;;;;;;4993237;28;20046;-81
2023/09/18 11:36:12;;;;;;;9.15;5.75;;;21.90;99.90;;;;;;4993237;28;20042;-80
2023/09/18 11:39:02;;;;;;;7.50;5.57;;;22.20;99.90;;;;;;4993450;28;20521;-81
2023/09/18 11:41:30;;;;;;;8.45;5.53;;;22.20;99.90;;;;;;4993271;28;20044;-79
2023/09/18 11:44:13;;;;;;;5.70;5.13;;;22.20;99.90;;;;;;4976659;28;20053;-80
2023/09/18 11:46:40;;;;;;;6.65;5.40;;;22.30;99.90;;;;;;4993752;28;20053;-80
2023/09/18 11:49:07;;;;;;;8.85;5.22;;;22.20;99.90;;;;;;4976774;28;20553;-80
2023/09/18 11:51:35;;;;;;;8.57;5.38;;;22.30;99.90;;;;;;4990438;28;20062;-81
2023/09/18 11:54:03;;;;;;;5.57;4.88;;;22.40;99.90;;;;;;4987886;28;20572;-81
2023/09/18 11:56:29;;;;;;;6.30;4.82;;;22.40;99.90;;;;;;4992950;28;20121;-81
2023/09/18 11:58:55;;;;;;;5.93;4.78;;;22.40;99.90;;;;;;4993481;28;20413;-81
2023/09/18 12:01:22;;;;;;;6.10;4.53;;;22.30;99.90;;;;;;4992619;28;20038;-81
2023/09/18 12:04:00;;;;;;;6.45;4.68;;;22.40;99.90;;;;;;4992763;28;20125;-79
2023/09/18 12:06:26;;;;;;;6.40;4.78;;;22.60;99.90;;;;;;4983782;28;20042;-82
2023/09/18 12:08:53;;;;;;;7.03;4.43;;;22.70;99.90;;;;;;4976785;28;20058;-81
2023/09/18 12:11:20;;;;;;;4.78;4.28;;;22.90;99.90;;;;;;4976984;28;20039;-81
2023/09/18 12:13:48;;;;;;;5.57;4.28;;;23.00;99.90;;;;;;4993038;28;20042;-81
2023/09/18 12:16:13;;;;;;;5.10;3.72;;;23.10;99.90;;;;;;4976190;28;20045;-81
2023/09/18 12:18:47;;;;;;;5.22;4.20;;;23.20;99.90;;;;;;4990838;28;20042;-81
2023/09/18 12:21:14;;;;;;;7.68;4.32;;;23.10;99.90;;;;;;4982758;28;20050;-81
2023/09/18 12:23:40;;;;;;;5.60;4.22;;;23.00;99.90;;;;;;4991162;28;20096;-81
2023/09/18 12:26:09;;;;;;;5.45;4.20;;;22.90;99.90;;;;;;4968150;28;20042;-81
2023/09/18 12:28:37;;;;;;;6.88;4.20;;;22.70;99.90;;;;;;4989034;28;20568;-81
2023/09/18 12:31:07;;;;;;;5.13;4.43;;;22.50;99.90;;;;;;4991723;28;20510;-80
2023/09/18 12:33:37;;;;;;;6.43;4.32;;;22.40;99.90;;;;;;4975646;28;20034;-82